Time;durP1;ratioP1;P1;durP2;ratioP2;P2;SDS_P1;SDS_P2;PMS_P1;PMS_P2;Temp;Humidity;BMP_temperature;BMP_pressure;BME280_temperature;BME280_humidity;BME280_pressure;Samples;Min_cycle;Max_cycle;Signal;HPM_P1;HPM_P2
2022/06/11 00:02:12;;;;;;;2.80;1.70;;;;;;;16.59;100.00;101420.34;5074682;28;20044;-80
2022/06/11 00:04:46;;;;;;;2.85;1.75;;;;;;;16.65;100.00;101414.44;5076285;28;20051;-80
2022/06/11 00:07:22;;;;;;;2.45;1.73;;;;;;;16.64;100.00;101411.97;5091711;28;20059;-80
2022/06/11 00:09:55;;;;;;;1.88;1.70;;;;;;;16.67;100.00;101406.72;5066636;28;20056;-81
2022/06/11 00:12:30;;;;;;;3.42;1.90;;;;;;;16.68;100.00;101407.50;5079521;28;20044;-80
2022/06/11 00:15:05;;;;;;;3.05;1.92;;;;;;;16.69;100.00;101403.66;5078456;28;20052;-80
2022/06/11 00:17:38;;;;;;;2.45;1.80;;;;;;;16.63;100.00;101402.94;5071329;28;20052;-80
2022/06/11 00:20:07;;;;;;;2.17;1.80;;;;;;;16.70;100.00;101407.22;5084619;28;20048;-80
2022/06/11 00:22:41;;;;;;;3.88;2.05;;;;;;;16.70;100.00;101394.28;5078918;28;20455;-81
2022/06/11 00:25:14;;;;;;;4.28;1.90;;;;;;;16.73;100.00;101393.69;5080461;28;20035;-80
2022/06/11 00:27:44;;;;;;;2.75;2.00;;;;;;;16.64;100.00;101401.00;5078116;28;20048;-82
2022/06/11 00:30:12;;;;;;;3.58;2.00;;;;;;;16.70;100.00;101394.28;5079723;28;20052;-82
2022/06/11 00:32:46;;;;;;;3.03;1.98;;;;;;;16.77;100.00;101391.16;5069192;28;20466;-81
2022/06/11 00:35:19;;;;;;;3.85;2.10;;;;;;;16.72;100.00;101396.72;5076552;28;20052;-80
2022/06/11 00:37:53;;;;;;;2.83;1.90;;;;;;;16.67;100.00;101392.16;5068756;28;20052;-79
2022/06/11 00:40:28;;;;;;;3.33;2.10;;;;;;;16.68;100.00;101385.53;5083263;28;20044;-80
2022/06/11 00:42:58;;;;;;;2.72;2.05;;;;;;;16.68;100.00;101388.28;5073921;28;20053;-80
2022/06/11 00:45:34;;;;;;;2.13;1.80;;;;;;;16.61;100.00;101382.38;5082767;28;20044;-79
2022/06/11 00:48:13;;;;;;;2.38;1.77;;;;;;;16.62;100.00;101393.06;5073396;28;20049;-79
2022/06/11 00:50:50;;;;;;;3.60;2.05;;;;;;;16.60;100.00;101384.31;5072372;28;20055;-79
2022/06/11 00:53:35;;;;;;;2.38;1.90;;;;;;;16.57;100.00;101373.94;5074065;28;20056;-79
2022/06/11 00:56:14;;;;;;;2.15;1.80;;;;;;;16.60;100.00;101377.97;5073712;28;20051;-81
2022/06/11 00:58:50;;;;;;;4.03;1.90;;;;;;;16.49;100.00;101371.88;5072472;28;20044;-80
2022/06/11 01:01:24;;;;;;;4.25;2.13;;;;;;;16.55;100.00;101373.41;5075304;28;20051;-79
2022/06/11 01:04:00;;;;;;;3.45;2.10;;;;;;;16.53;100.00;101372.91;5080832;28;20477;-80
2022/06/11 01:06:39;;;;;;;2.65;2.13;;;;;;;16.53;100.00;101369.31;5078308;28;20052;-80
2022/06/11 01:09:21;;;;;;;2.60;2.10;;;;;;;16.58;100.00;101374.72;5081454;28;20047;-80
2022/06/11 01:12:06;;;;;;;4.38;2.38;;;;;;;16.55;100.00;101375.34;5074195;28;20044;-80
2022/06/11 01:14:47;;;;;;;2.00;1.80;;;;;;;16.48;100.00;101359.25;5077639;28;20053;-80
2022/06/11 01:17:28;;;;;;;3.03;1.80;;;;;;;16.50;100.00;101365.25;5073533;28;20071;-81
2022/06/11 01:20:33;;;;;;;2.25;1.80;;;;;;;16.53;100.00;101361.09;5080645;28;20047;-80
2022/06/11 01:23:47;;;;;;;1.83;1.73;;;;;;;16.51;100.00;101364.13;5027270;28;20502;-80
2022/06/11 01:26:56;;;;;;;2.35;2.08;;;;;;;16.45;100.00;101354.38;4978693;28;20066;-81
2022/06/11 01:29:41;;;;;;;2.22;1.90;;;;;;;16.47;100.00;101357.63;5058445;28;20048;-81
2022/06/11 01:32:21;;;;;;;2.50;1.90;;;;;;;16.47;100.00;101358.47;5072162;28;20052;-80
2022/06/11 01:35:02;;;;;;;2.03;1.80;;;;;;;16.43;100.00;101351.09;5075527;28;20051;-80
2022/06/11 01:37:41;;;;;;;1.90;1.70;;;;;;;16.45;100.00;101352.44;5084517;28;20043;-80
2022/06/11 01:40:21;;;;;;;3.15;1.88;;;;;;;16.43;100.00;101357.44;5094119;28;20044;-80
2022/06/11 01:42:59;;;;;;;3.65;2.35;;;;;;;16.40;100.00;101344.28;5072715;28;20496;-79
2022/06/11 01:45:31;;;;;;;3.33;2.25;;;;;;;16.45;100.00;101344.19;5079567;28;20045;-79
2022/06/11 01:48:03;;;;;;;2.70;2.13;;;;;;;16.42;100.00;101339.31;5071365;28;20493;-80
2022/06/11 01:50:40;;;;;;;2.38;2.00;;;;;;;16.42;100.00;101338.47;5075474;28;20032;-81
2022/06/11 01:53:35;;;;;;;2.03;1.70;;;;;;;16.42;100.00;101342.06;5074246;28;23020;-81
2022/06/11 01:56:56;;;;;;;3.08;1.95;;;;;;;16.45;100.00;101344.19;5068807;28;20036;-82
2022/06/11 01:59:48;;;;;;;2.35;2.03;;;;;;;16.44;100.00;101350.00;5012750;28;20065;-79
2022/06/11 02:02:37;;;;;;;3.38;2.13;;;;;;;16.44;100.00;101348.06;5005151;28;20529;-80
2022/06/11 02:05:19;;;;;;;2.10;1.90;;;;;;;16.43;100.00;101351.94;5067055;28;20072;-79
2022/06/11 02:08:03;;;;;;;4.30;2.42;;;;;;;16.58;100.00;101353.56;5083480;28;20040;-80
2022/06/11 02:10:38;;;;;;;2.58;1.95;;;;;;;16.58;100.00;101348.06;5092984;28;20475;-78
2022/06/11 02:13:23;;;;;;;2.55;2.10;;;;;;;16.67;100.00;101350.94;5069478;28;20056;-80
2022/06/11 02:16:01;;;;;;;2.65;1.95;;;;;;;16.55;100.00;101345.13;5082341;28;20051;-80
2022/06/11 02:18:36;;;;;;;3.30;2.22;;;;;;;16.59;100.00;101338.72;5072435;28;20068;-79
2022/06/11 02:21:08;;;;;;;3.00;1.90;;;;;;;16.60;100.00;101340.34;5077372;28;20048;-79
2022/06/11 02:23:46;;;;;;;4.28;2.50;;;;;;;16.65;100.00;101337.50;5081055;28;20052;-79
2022/06/11 02:26:23;;;;;;;3.40;2.33;;;;;;;16.63;100.00;101339.72;5074069;28;20405;-80
2022/06/11 02:28:59;;;;;;;3.38;2.17;;;;;;;16.72;100.00;101334.31;5069686;28;20489;-80
2022/06/11 02:31:38;;;;;;;2.17;1.98;;;;;;;16.64;100.00;101324.88;5067392;28;20063;-79
2022/06/11 02:34:17;;;;;;;4.35;2.00;;;;;;;16.67;100.00;101331.69;5073294;28;20048;-80
2022/06/11 02:37:00;;;;;;;2.42;1.95;;;;;;;16.65;100.00;101326.50;5076521;28;20614;-81
2022/06/11 02:39:38;;;;;;;4.38;2.28;;;;;;;16.65;100.00;101326.50;5076324;28;20032;-80
2022/06/11 02:42:09;;;;;;;2.88;2.35;;;;;;;16.58;100.00;101328.03;5073996;28;20059;-80
2022/06/11 02:44:38;;;;;;;4.28;2.30;;;;;;;16.59;100.00;101326.91;5074700;28;20036;-81
2022/06/11 02:47:11;;;;;;;5.15;2.53;;;;;;;16.54;100.00;101324.25;5073425;28;20059;-81
2022/06/11 02:49:41;;;;;;;2.97;2.22;;;;;;;16.51;100.00;101330.38;5052805;28;20047;-82
2022/06/11 02:52:18;;;;;;;5.40;2.45;;;;;;;16.49;100.00;101315.00;5072511;28;20048;-80
2022/06/11 02:54:53;;;;;;;4.07;2.20;;;;;;;16.48;100.00;101318.03;5068718;28;20055;-81
2022/06/11 02:57:25;;;;;;;2.20;2.00;;;;;;;16.49;100.00;101311.44;5078831;28;20060;-80
2022/06/11 02:59:54;;;;;;;2.55;2.10;;;;;;;16.52;100.00;101319.06;5072282;28;20634;-80
2022/06/11 03:02:27;;;;;;;3.15;2.30;;;;;;;16.53;100.00;101317.97;5077822;28;20056;-81
2022/06/11 03:05:02;;;;;;;2.50;1.95;;;;;;;16.52;100.00;101319.06;5073874;28;20040;-81
2022/06/11 03:07:30;;;;;;;3.10;2.20;;;;;;;16.52;100.00;101321.81;5080019;28;20058;-81
2022/06/11 03:10:05;;;;;;;2.88;2.25;;;;;;;16.54;100.00;101322.31;5069460;28;20044;-81
2022/06/11 03:12:38;;;;;;;3.17;2.10;;;;;;;16.54;100.00;101324.25;5070876;28;20040;-80
2022/06/11 03:15:12;;;;;;;3.28;2.40;;;;;;;16.52;100.00;101330.06;5078531;28;20063;-81
2022/06/11 03:17:40;;;;;;;3.65;2.42;;;;;;;16.49;100.00;101328.72;5078187;28;20044;-80
2022/06/11 03:20:11;;;;;;;2.33;2.00;;;;;;;16.50;100.00;101332.28;5069220;28;20048;-81
2022/06/11 03:22:44;;;;;;;3.15;2.20;;;;;;;16.46;100.00;101320.28;5076805;28;20047;-80
2022/06/11 03:25:20;;;;;;;3.67;2.47;;;;;;;16.54;100.00;101335.25;5090596;28;20102;-80
2022/06/11 03:27:51;;;;;;;3.28;2.30;;;;;;;16.53;100.00;101339.94;5072564;28;20431;-81
2022/06/11 03:30:25;;;;;;;2.40;2.20;;;;;;;16.53;100.00;101339.94;5080821;28;20055;-80
2022/06/11 03:32:58;;;;;;;3.15;2.13;;;;;;;16.54;100.00;101336.06;5073077;28;20044;-81
2022/06/11 03:35:27;;;;;;;2.60;2.30;;;;;;;16.46;100.00;101331.25;5074538;28;20059;-81
2022/06/11 03:38:01;;;;;;;4.13;2.47;;;;;;;16.48;100.00;101335.34;5078757;28;20051;-81
2022/06/11 03:40:36;;;;;;;3.55;2.47;;;;;;;16.43;100.00;101329.97;5065135;28;20040;-81
2022/06/11 03:43:04;;;;;;;2.38;2.17;;;;;;;16.48;100.00;101342.78;5071348;28;20048;-81
2022/06/11 03:45:38;;;;;;;3.20;2.38;;;;;;;16.53;100.00;101345.44;5072284;28;20047;-80
2022/06/11 03:48:12;;;;;;;3.58;2.50;;;;;;;16.48;100.00;101334.53;5081442;28;20052;-81
2022/06/11 03:50:46;;;;;;;2.67;2.25;;;;;;;16.53;100.00;101345.44;5066080;28;20037;-81
2022/06/11 03:53:19;;;;;;;3.08;2.22;;;;;;;16.58;100.00;101341.75;5070736;28;20049;-80
2022/06/11 03:55:52;;;;;;;2.70;2.40;;;;;;;16.55;100.00;101336.88;5084336;28;20617;-80
2022/06/11 03:58:26;;;;;;;2.60;2.40;;;;;;;16.57;100.00;101331.88;5080495;28;20504;-82
2022/06/11 04:04:01;;;;;;;2.90;2.30;;;;;;;16.61;100.00;101346.66;5046114;28;20056;-81
2022/06/11 04:06:34;;;;;;;4.28;2.63;;;;;;;16.61;100.00;101343.91;5070590;28;20049;-82
2022/06/11 04:09:12;;;;;;;3.33;2.42;;;;;;;16.60;100.00;101340.34;5074055;28;20488;-81
2022/06/11 04:11:45;;;;;;;2.67;2.42;;;;;;;16.64;100.00;101346.03;5066857;28;20045;-81
2022/06/11 04:14:19;;;;;;;3.05;2.60;;;;;;;16.63;100.00;101347.16;5075123;28;20047;-81
2022/06/11 04:16:55;;;;;;;3.20;2.50;;;;;;;16.63;100.00;101350.72;5073109;28;20374;-81
2022/06/11 04:19:32;;;;;;;3.72;2.65;;;;;;;16.67;100.00;101342.69;5076423;28;20052;-81
2022/06/11 04:22:08;;;;;;;2.63;2.42;;;;;;;16.65;100.00;101347.66;5068779;28;20052;-81
2022/06/11 04:24:36;;;;;;;4.20;3.00;;;;;;;16.66;100.00;101341.06;5065598;28;20056;-81
2022/06/11 04:27:12;;;;;;;3.90;2.80;;;;;;;16.60;100.00;101334.00;5072873;28;20059;-79
2022/06/11 04:29:44;;;;;;;3.50;2.80;;;;;;;16.60;100.00;101339.50;5077894;28;20040;-79
2022/06/11 04:32:15;;;;;;;3.65;2.97;;;;;;;16.59;100.00;101338.72;5070819;28;20056;-79
2022/06/11 04:34:45;;;;;;;2.92;2.63;;;;;;;16.60;100.00;101339.50;5074229;28;20048;-79
2022/06/11 04:37:17;;;;;;;3.35;3.03;;;;;;;16.57;100.00;101331.88;5082648;28;20110;-83
2022/06/11 04:39:49;;;;;;;3.63;3.03;;;;;;;16.56;100.00;101330.25;5064280;28;20044;-79
2022/06/11 04:42:24;;;;;;;4.90;3.40;;;;;;;16.59;100.00;101340.66;5080125;28;20049;-79
2022/06/11 04:44:58;;;;;;;3.72;3.38;;;;;;;16.56;100.00;101333.00;5071367;28;20036;-78
2022/06/11 04:47:28;;;;;;;3.70;3.40;;;;;;;16.49;100.00;101339.72;5071419;28;20078;-81
2022/06/11 04:50:05;;;;;;;4.32;3.88;;;;;;;16.46;100.00;101343.09;5077045;28;20050;-79
2022/06/11 04:52:34;;;;;;;4.30;3.90;;;;;;;16.47;100.00;101341.13;5072363;28;20056;-79
2022/06/11 04:55:08;;;;;;;4.55;4.10;;;;;;;16.48;100.00;101340.03;5074550;28;20496;-79
2022/06/11 04:57:43;;;;;;;4.80;4.40;;;;;;;16.47;100.00;101335.66;5072810;28;20071;-79
2022/06/11 05:00:19;;;;;;;4.07;3.75;;;;;;;16.43;100.00;101346.44;5075624;28;20078;-78
2022/06/11 05:02:52;;;;;;;4.90;4.50;;;;;;;16.56;100.00;101344.81;5080836;28;20071;-78
2022/06/11 05:05:26;;;;;;;5.10;4.60;;;;;;;16.72;100.00;101323.31;5077936;28;20061;-79
2022/06/11 05:08:01;;;;;;;5.70;5.20;;;;;;;16.86;100.00;101333.50;5088973;28;20044;-79
2022/06/11 05:10:31;;;;;;;5.65;5.15;;;;;;;17.03;100.00;101335.66;5080903;28;20396;-81
2022/06/11 05:12:59;;;;;;;6.05;5.45;;;;;;;17.17;100.00;101348.28;5076577;28;20040;-80
2022/06/11 05:15:33;;;;;;;5.80;5.30;;;;;;;18.65;100.00;101344.13;5080727;28;20047;-80
2022/06/11 05:18:07;;;;;;;4.97;4.57;;;;;;;17.97;100.00;101341.53;5084846;28;20505;-80
2022/06/11 05:20:41;;;;;;;4.95;4.45;;;;;;;17.75;100.00;101343.13;5073428;28;20044;-80
2022/06/11 05:23:15;;;;;;;4.30;3.92;;;;;;;17.65;100.00;101343.38;5082972;28;20040;-81
2022/06/11 05:25:49;;;;;;;5.95;4.53;;;;;;;17.71;100.00;101355.06;5068401;28;20051;-80
2022/06/11 05:28:26;;;;;;;5.15;4.22;;;;;;;17.92;100.00;101350.69;5079672;28;20044;-80
2022/06/11 05:30:55;;;;;;;3.95;3.58;;;;;;;17.83;100.00;101349.81;5073754;28;20055;-79
2022/06/11 05:33:25;;;;;;;4.50;4.10;;;;;;;18.47;100.00;101352.31;5074583;28;20048;-79
2022/06/11 05:35:58;;;;;;;4.40;3.92;;;;;;;20.88;100.00;101340.28;5079374;28;20055;-79
2022/06/11 05:38:34;;;;;;;3.75;3.45;;;;;;;21.28;100.00;101338.22;5076154;28;20048;-80
2022/06/11 05:41:07;;;;;;;3.15;2.85;;;;;;;20.45;100.00;101343.22;5077213;28;20501;-81
2022/06/11 05:43:40;;;;;;;3.70;2.80;;;;;;;21.04;100.00;101325.88;5073056;28;20047;-80
2022/06/11 05:46:17;;;;;;;3.65;2.58;;;;;;;20.95;100.00;101334.22;5072503;28;20096;-81
2022/06/11 05:48:53;;;;;;;3.42;2.42;;;;;;;20.78;100.00;101337.88;5070376;28;20045;-80
2022/06/11 05:51:25;;;;;;;2.95;2.40;;;;;;;20.63;100.00;101342.03;5065537;28;20564;-82
2022/06/11 05:53:58;;;;;;;2.50;2.10;;;;;;;20.44;100.00;101341.59;5072163;28;20041;-81
2022/06/11 05:56:31;;;;;;;3.35;2.25;;;;;;;20.32;100.00;101339.53;5074798;28;20040;-80
2022/06/11 05:59:08;;;;;;;3.67;2.10;;;;;;;20.41;100.00;101340.31;5074524;28;20511;-81
2022/06/11 06:01:42;;;;;;;5.53;2.55;;;;;;;20.61;100.00;101336.00;5068930;28;20059;-81
2022/06/11 06:04:16;;;;;;;4.45;2.40;;;;;;;20.24;100.00;101338.41;5072586;28;20048;-79
2022/06/11 06:06:49;;;;;;;3.67;2.17;;;;;;;20.19;100.00;101344.09;5086143;28;20051;-81
2022/06/11 06:09:24;;;;;;;3.88;2.15;;;;;;;20.39;100.00;101339.81;5080240;28;20051;-79
2022/06/11 06:11:57;;;;;;;4.40;2.42;;;;;;;20.41;100.00;101342.25;5072762;28;20053;-81
2022/06/11 06:14:25;;;;;;;3.58;2.15;;;;;;;20.38;100.00;101352.84;5082339;28;20068;-82
2022/06/11 06:16:58;;;;;;;3.08;2.15;;;;;;;20.29;100.00;101354.81;5071580;28;20055;-80
2022/06/11 06:19:31;;;;;;;2.90;2.10;;;;;;;20.45;100.00;101348.75;5075185;28;20134;-81
2022/06/11 06:22:05;;;;;;;3.33;2.22;;;;;;;20.35;100.00;101359.00;5073812;28;20055;-80
2022/06/11 06:24:35;;;;;;;4.78;2.40;;;;;;;20.47;100.00;101363.06;5072875;28;20114;-81
2022/06/11 06:27:08;;;;;;;4.00;2.55;;;;;;;20.12;100.00;101355.69;5077326;28;20058;-83
2022/06/11 06:29:42;;;;;;;5.15;2.88;;;;;;;20.33;100.00;101358.56;5073506;28;20808;-80
2022/06/11 06:32:15;;;;;;;4.20;2.60;;;;;;;20.37;100.00;101353.19;5073697;28;20053;-81
2022/06/11 06:34:49;;;;;;;4.25;2.45;;;;;;;20.59;100.00;101356.81;5068409;28;20064;-80
2022/06/11 06:37:22;;;;;;;5.05;2.60;;;;;;;20.60;100.00;101342.66;5063107;28;20048;-80
2022/06/11 06:39:57;;;;;;;5.15;2.90;;;;;;;20.63;100.00;101353.09;5066629;28;20036;-81
2022/06/11 06:42:30;;;;;;;4.40;2.40;;;;;;;20.83;100.00;101353.50;5073907;28;20059;-80
2022/06/11 06:45:04;;;;;;;4.88;3.03;;;;;;;20.52;100.00;101354.56;5065589;28;20053;-82
2022/06/11 06:47:37;;;;;;;4.55;2.75;;;;;;;20.65;100.00;101364.59;5065646;28;20060;-83
2022/06/11 06:50:11;;;;;;;6.50;2.97;;;;;;;20.86;100.00;101359.16;5062850;28;20051;-79
2022/06/11 06:52:44;;;;;;;4.72;2.80;;;;;;;20.78;100.00;101354.47;5065193;28;20055;-81
2022/06/11 06:55:19;;;;;;;5.07;2.88;;;;;;;20.22;100.00;101360.03;5082489;28;20045;-83
2022/06/11 06:57:52;;;;;;;6.82;3.38;;;;;;;20.32;100.00;101364.41;5068469;28;20052;-79
2022/06/11 07:00:21;;;;;;;4.20;3.00;;;;;;;20.65;100.00;101355.50;5071990;28;20059;-83
2022/06/11 07:02:55;;;;;;;3.92;2.80;;;;;;;20.55;100.00;101365.78;5068939;28;20481;-84
2022/06/11 07:05:28;;;;;;;3.70;2.55;;;;;;;20.87;100.00;101360.00;5069232;28;20051;-83
2022/06/11 07:08:01;;;;;;;6.50;3.22;;;;;;;20.98;100.00;101369.53;5067625;28;20474;-84
2022/06/11 07:10:36;;;;;;;5.40;2.90;;;;;;;21.47;100.00;101363.50;5063023;28;20039;-83
2022/06/11 07:13:09;;;;;;;6.22;2.90;;;;;;;21.27;100.00;101348.50;5067659;28;20048;-82
2022/06/11 07:15:43;;;;;;;7.35;3.00;;;;;;;20.97;100.00;101362.38;5056449;28;20052;-82
2022/06/11 07:18:21;;;;;;;5.45;2.78;;;;;;;20.73;100.00;101361.03;5064374;28;20048;-84
2022/06/11 07:20:56;;;;;;;5.22;3.00;;;;;;;20.63;100.00;101355.84;5062783;28;20052;-83
2022/06/11 07:23:27;;;;;;;6.25;3.00;;;;;;;20.66;100.00;101365.41;5064331;28;20051;-82
2022/06/11 07:26:00;;;;;;;7.38;2.65;;;;;;;20.91;100.00;101360.94;5067418;28;20055;-81
2022/06/11 07:28:38;;;;;;;4.57;2.60;;;;;;;21.14;100.00;101355.91;5056204;28;20040;-82
2022/06/11 07:31:07;;;;;;;4.75;2.60;;;;;;;21.41;100.00;101354.56;5064915;28;20055;-82
2022/06/11 07:33:43;;;;;;;5.47;2.45;;;;;;;21.54;100.00;101340.81;5067643;28;20044;-82
2022/06/11 07:36:18;;;;;;;4.03;2.03;;;;;;;21.27;100.00;101347.69;5062853;28;20053;-84
2022/06/11 07:38:52;;;;;;;4.38;1.95;;;;;;;21.27;100.00;101350.44;5067622;28;20045;-81
2022/06/11 07:41:27;;;;;;;5.18;1.80;;;;;;;21.08;100.00;101356.47;5067482;28;20047;-80
2022/06/11 07:44:01;;;;;;;5.43;2.00;;;;;;;21.40;100.00;101363.22;5064904;28;20045;-82
2022/06/11 07:46:34;;;;;;;4.82;1.92;;;;;;;21.50;100.00;101356.47;5068569;28;20040;-82
2022/06/11 07:49:07;;;;;;;3.15;1.70;;;;;;;21.45;100.00;101346.41;5028121;28;20053;-80
2022/06/11 07:51:40;;;;;;;4.88;1.65;;;;;;;21.69;100.00;101344.94;5052432;28;20044;-81
2022/06/11 07:54:14;;;;;;;4.55;1.80;;;;;;;22.00;100.00;101351.97;5034286;28;20603;-83
2022/06/11 07:56:49;;;;;;;2.65;1.58;;;;;;;21.76;100.00;101353.50;5033888;28;20064;-83
2022/06/11 07:59:22;;;;;;;4.45;2.05;;;;;;;21.60;100.00;101352.50;5037820;28;20061;-85
2022/06/11 08:01:50;;;;;;;3.70;2.00;;;;;;;21.45;100.00;101351.13;5042488;28;20512;-84
2022/06/11 08:04:23;;;;;;;5.50;2.15;;;;;;;21.39;100.00;101351.34;5038886;28;20053;-83
2022/06/11 08:06:56;;;;;;;5.20;2.08;;;;;;;21.10;100.00;101357.75;5037687;28;20045;-82
2022/06/11 08:09:24;;;;;;;4.63;2.30;;;;;;;21.05;100.00;101355.16;5040653;28;20413;-82
2022/06/11 08:11:59;;;;;;;2.47;1.70;;;;;;;21.36;100.00;101365.03;5034806;28;21291;-84
2022/06/11 08:14:32;;;;;;;3.28;2.00;;;;;;;21.21;100.00;101353.44;5043087;28;20068;-82
2022/06/11 08:17:05;;;;;;;4.90;2.47;;;;;;;21.19;100.00;101352.94;5035854;28;20610;-84
2022/06/11 08:19:38;;;;;;;3.80;2.30;;;;;;;21.27;100.00;101359.59;5035194;28;20045;-85
2022/06/11 08:22:12;;;;;;;4.18;2.80;;;;;;;20.73;100.00;101363.78;5061825;28;20055;-84
2022/06/11 08:24:45;;;;;;;4.95;2.60;;;;;;;;;;5070033;28;20044;-82
2022/06/11 08:27:14;;;;;;;4.60;2.53;;;;;;;20.62;100.00;101364.44;5048144;28;20060;-82
2022/06/11 08:29:48;;;;;;;6.43;2.60;;;;;;;20.97;100.00;101365.13;5039424;28;20831;-81
2022/06/11 08:32:21;;;;;;;5.22;2.65;;;;;;;21.45;100.00;101360.25;5041959;28;20056;-83
2022/06/11 08:34:54;;;;;;;4.38;2.60;;;;;;;21.73;100.00;101363.31;5043830;28;20048;-84
2022/06/11 08:37:27;;;;;;;5.30;2.78;;;;;;;21.81;100.00;101363.59;5040934;28;20052;-82
2022/06/11 08:39:56;;;;;;;4.57;2.42;;;;;;;21.84;100.00;101365.66;5043335;28;20044;-83
2022/06/11 08:42:35;;;;;;;5.20;2.38;;;;;;;22.10;100.00;101365.41;5043627;28;20102;-82
2022/06/11 08:45:18;;;;;;;4.82;2.55;;;;;;;22.00;100.00;101363.88;5042726;28;20045;-84
2022/06/11 08:47:55;;;;;;;6.53;2.60;;;;;;;21.90;100.00;101367.06;5039068;28;20048;-81
2022/06/11 08:50:34;;;;;;;5.53;2.80;;;;;;;22.04;100.00;101358.44;5043429;28;20493;-83
2022/06/11 08:53:07;;;;;;;5.70;2.53;;;;;;;22.06;100.00;101367.25;5035815;28;20060;-81
2022/06/11 08:55:38;;;;;;;4.28;2.63;;;;;;;22.13;100.00;101361.16;5038179;28;20045;-83
2022/06/11 08:58:23;;;;;;;4.22;2.50;;;;;;;22.23;100.00;101369.84;5044445;28;20057;-81
2022/06/11 09:01:04;;;;;;;8.07;2.80;;;;;;;22.00;100.00;101354.75;5062934;28;20048;-80
2022/06/11 09:03:50;;;;;;;7.20;2.90;;;;;;;21.64;100.00;101359.81;5051977;28;20056;-82
2022/06/11 09:06:35;;;;;;;4.78;2.50;;;;;;;22.00;100.00;101357.50;5046178;28;20049;-81
2022/06/11 09:09:13;;;;;;;6.57;2.80;;;;;;;22.40;100.00;101357.78;5045684;28;20067;-82
2022/06/11 09:11:57;;;;;;;3.88;2.33;;;;;;;22.23;95.21;101357.94;5046190;28;20067;-80
2022/06/11 09:14:46;;;;;;;6.00;2.40;;;;;;;22.33;97.64;101360.28;5045545;28;20040;-81
2022/06/11 09:17:36;;;;;;;6.50;2.60;;;;;;;22.20;97.77;101344.75;5048688;28;20459;-85
2022/06/11 09:20:20;;;;;;;4.68;2.53;;;;;;;22.36;100.00;101348.53;5036424;28;20583;-82
2022/06/11 09:23:10;;;;;;;6.30;2.60;;;;;;;21.92;100.00;101354.50;5043985;28;20045;-80
2022/06/11 09:25:53;;;;;;;5.45;2.67;;;;;;;22.23;100.00;101353.22;5045211;28;20053;-85
2022/06/11 09:28:37;;;;;;;5.00;2.80;;;;;;;22.57;100.00;101364.25;5039569;28;20056;-83
2022/06/11 09:31:25;;;;;;;5.15;2.95;;;;;;;22.15;100.00;101348.56;5039987;28;20060;-80
2022/06/11 09:34:06;;;;;;;8.52;3.22;;;;;;;22.34;100.00;101358.34;5041322;28;20064;-80
2022/06/11 09:36:46;;;;;;;5.55;2.88;;;;;;;22.07;100.00;101357.78;5050825;28;20472;-82
2022/06/11 09:39:34;;;;;;;5.05;2.88;;;;;;;21.66;100.00;101359.47;5059228;28;20052;-83
2022/06/11 09:42:58;;;;;;;4.45;2.70;;;;;;;22.05;100.00;101362.84;5067452;28;20474;-80
2022/06/11 09:45:32;;;;;;;4.30;2.30;;;;;;;22.03;81.97;101360.41;4972322;28;21504;-86
2022/06/11 09:48:19;;;;;;;5.18;2.25;;;;;;;22.23;83.70;101355.97;5046400;28;20221;-83
2022/06/11 09:50:58;;;;;;;3.50;1.80;;;;;;;22.27;76.78;101364.41;5059382;28;20052;-82
2022/06/11 09:53:44;;;;;;;3.63;1.98;;;;;;;22.58;86.33;101361.13;5084153;28;20056;-82
2022/06/11 09:56:26;;;;;;;4.78;2.30;;;;;;;22.35;73.38;101363.53;5088294;28;20063;-84
2022/06/11 09:59:07;;;;;;;4.25;2.20;;;;;;;22.76;73.84;101356.19;5061482;28;20056;-83
2022/06/11 10:01:47;;;;;;;4.32;2.00;;;;;;;23.23;76.84;101352.09;5065481;28;20067;-80
2022/06/11 10:04:23;;;;;;;3.28;2.03;;;;;;;23.31;82.76;101347.59;5073822;28;20056;-84
2022/06/11 10:06:58;;;;;;;3.80;2.10;;;;;;;23.43;77.75;101350.31;5057606;28;20100;-82
2022/06/11 10:09:36;;;;;;;4.72;2.80;;;;;;;23.24;79.77;101352.91;5060271;28;20052;-80
2022/06/11 10:12:20;;;;;;;3.17;1.80;;;;;;;23.63;68.72;101342.16;5059189;28;20049;-82
2022/06/11 10:14:56;;;;;;;3.92;1.67;;;;;;;23.73;73.01;101349.97;5056942;28;20052;-83
2022/06/11 10:17:35;;;;;;;3.28;1.80;;;;;;;23.21;75.31;101375.81;5068187;28;20059;-83
2022/06/11 10:20:14;;;;;;;6.10;1.65;;;;;;;23.00;79.20;101362.06;5061322;28;20044;-84
2022/06/11 10:22:54;;;;;;;3.33;1.55;;;;;;;22.99;65.31;101358.47;5058601;28;20735;-84
2022/06/11 10:25:32;;;;;;;2.55;1.40;;;;;;;23.22;70.43;101366.34;5069189;28;20840;-83
2022/06/11 10:28:06;;;;;;;2.92;1.20;;;;;;;23.27;61.94;101366.91;5063651;28;20879;-81
2022/06/11 10:30:42;;;;;;;3.38;1.58;;;;;;;23.75;72.49;101361.56;5067946;28;20040;-82
2022/06/11 10:33:23;;;;;;;3.13;1.40;;;;;;;23.74;63.96;101370.25;5059134;28;20232;-83
2022/06/11 10:36:06;;;;;;;4.00;1.35;;;;;;;23.88;67.16;101375.44;5063020;28;20044;-82
2022/06/11 10:38:40;;;;;;;3.22;1.50;;;;;;;23.93;71.89;101366.81;5061260;28;20397;-81
2022/06/11 10:41:22;;;;;;;2.28;1.40;;;;;;;23.74;59.09;101359.94;5061895;28;20053;-84
2022/06/11 10:43:59;;;;;;;3.78;1.30;;;;;;;23.98;62.63;101374.13;5064045;28;20052;-82
2022/06/11 10:46:27;;;;;;;4.10;1.30;;;;;;;24.17;69.68;101385.38;5084333;28;20076;-81
2022/06/11 10:49:00;;;;;;;3.47;1.60;;;;;;;23.73;55.86;101377.78;5053413;28;20051;-81
2022/06/11 10:51:38;;;;;;;3.22;1.50;;;;;;;24.05;65.05;101371.53;5066387;28;20071;-81
2022/06/11 10:54:17;;;;;;;2.78;1.30;;;;;;;23.90;57.70;101381.44;5062767;28;20064;-83
2022/06/11 10:56:48;;;;;;;5.13;1.50;;;;;;;23.87;55.90;101374.59;5060827;28;20063;-80
2022/06/11 10:59:24;;;;;;;2.03;1.40;;;;;;;23.45;51.21;101380.53;5056908;28;20071;-83
2022/06/11 11:02:02;;;;;;;3.40;1.60;;;;;;;22.57;53.32;101376.16;5082038;28;20047;-81
2022/06/11 11:04:39;;;;;;;3.80;1.65;;;;;;;22.73;54.37;101390.16;5065489;28;20055;-84
2022/06/11 11:07:20;;;;;;;2.75;1.42;;;;;;;23.06;56.10;101391.19;5060386;28;20057;-82
2022/06/11 11:09:58;;;;;;;2.20;1.30;;;;;;;22.82;54.21;101392.81;5065230;28;20044;-82
2022/06/11 11:12:30;;;;;;;3.22;1.30;;;;;;;22.98;45.31;101384.63;5079179;28;20059;-83
2022/06/11 11:15:14;;;;;;;2.65;1.25;;;;;;;22.81;45.92;101391.19;5056414;28;20067;-83
2022/06/11 11:17:52;;;;;;;3.20;1.30;;;;;;;23.01;49.37;101388.69;5063730;28;20389;-81
2022/06/11 11:20:34;;;;;;;2.33;1.30;;;;;;;23.01;45.56;101406.13;5062490;28;20056;-81
2022/06/11 11:23:14;;;;;;;2.20;1.20;;;;;;;22.81;45.09;101395.94;5060386;28;20078;-82
2022/06/11 11:25:50;;;;;;;3.42;1.38;;;;;;;23.19;45.40;101367.06;5073724;28;20048;-80
2022/06/11 11:28:26;;;;;;;4.40;1.50;;;;;;;22.96;46.00;101398.03;5062306;28;20044;-83
2022/06/11 11:31:03;;;;;;;3.35;1.42;;;;;;;23.14;47.99;101387.53;5071766;28;20051;-84
2022/06/11 11:33:39;;;;;;;2.03;1.17;;;;;;;23.70;57.79;101391.59;5059678;28;20091;-82
2022/06/11 11:36:20;;;;;;;3.43;1.63;;;;;;;23.55;53.09;101396.69;5067300;28;20056;-84
2022/06/11 11:39:16;;;;;;;4.45;1.58;;;;;;;23.66;48.51;101357.31;5059980;28;20056;-83
2022/06/11 11:42:01;;;;;;;2.72;1.50;;;;;;;23.38;43.84;101383.91;5059109;28;20066;-83
2022/06/11 11:44:34;;;;;;;4.78;1.50;;;;;;;23.60;47.47;101392.84;5072858;28;20052;-84
2022/06/11 11:47:16;;;;;;;4.55;1.60;;;;;;;23.80;44.90;101391.06;5084117;28;20067;-82
2022/06/11 11:49:56;;;;;;;3.78;1.73;;;;;;;23.39;46.25;101406.91;5037060;28;20083;-81
2022/06/11 11:52:29;;;;;;;5.30;1.80;;;;;;;23.52;44.18;101402.13;5064037;28;20052;-86
2022/06/11 11:55:08;;;;;;;4.68;1.40;;;;;;;23.41;46.28;101410.19;5056135;28;20056;-83
2022/06/11 11:57:41;;;;;;;3.67;1.50;;;;;;;23.24;51.06;101408.44;5060920;28;20048;-85
2022/06/11 12:00:27;;;;;;;3.95;1.80;;;;;;;23.58;53.01;101414.66;5055576;28;20778;-87
2022/06/11 12:03:04;;;;;;;4.28;1.50;;;;;;;23.50;49.35;101424.72;5072032;28;20720;-90
2022/06/11 12:05:39;;;;;;;4.32;1.45;;;;;;;23.17;48.14;101422.09;5060632;28;20305;-86